Time;durP1;ratioP1;P1;durP2;ratioP2;P2;SDS_P1;SDS_P2;PMS_P1;PMS_P2;Temp;Humidity;BMP_temperature;BMP_pressure;BME280_temperature;BME280_humidity;BME280_pressure;Samples;Min_cycle;Max_cycle;Signal;HPM_P1;HPM_P2
2022/05/07 00:01:08;;;;;;;10.27;5.50;;;;;;;;;;4970835;28;20026;-67
2022/05/07 00:03:34;;;;;;;11.48;6.28;;;;;;;;;;4984008;28;20454;-67
2022/05/07 00:05:59;;;;;;;9.57;5.95;;;;;;;;;;4987167;28;20113;-67
2022/05/07 00:08:25;;;;;;;12.85;5.97;;;;;;;;;;4986449;28;20105;-67
2022/05/07 00:10:52;;;;;;;8.43;5.20;;;;;;;;;;5059982;28;20401;-66
2022/05/07 00:13:18;;;;;;;10.05;5.80;;;;;;;;;;5067519;28;20028;-67
2022/05/07 00:18:01;;;;;;;18.60;6.00;;;;;;;;;;5044953;28;20029;-67
2022/05/07 00:18:30;;;;;;;11.93;5.93;;;;;;;;;;5068362;28;20036;-67
2022/05/07 00:20:56;;;;;;;14.10;5.88;;;;;;;;;;5051315;28;20066;-67
2022/05/07 00:23:22;;;;;;;9.82;5.90;;;;;;;;;;5066929;28;20400;-67
2022/05/07 00:25:48;;;;;;;14.90;6.22;;;;;;;;;;5050474;28;20032;-67
2022/05/07 00:28:14;;;;;;;12.90;6.22;;;;;;;;;;5047795;28;20483;-67
2022/05/07 00:30:40;;;;;;;9.93;5.88;;;;;;;;;;5059675;28;20043;-67
2022/05/07 00:33:06;;;;;;;11.05;5.63;;;;;;;;;;5061126;28;20489;-67
2022/05/07 00:35:32;;;;;;;8.80;5.45;;;;;;;;;;5052678;28;20024;-67
2022/05/07 00:37:58;;;;;;;8.82;5.47;;;;;;;;;;5071447;28;20024;-67
2022/05/07 00:40:24;;;;;;;7.70;5.20;;;;;;;;;;5045009;28;20379;-67
2022/05/07 00:42:50;;;;;;;9.75;5.32;;;;;;;;;;5072889;28;20025;-67
2022/05/07 00:45:16;;;;;;;11.45;5.50;;;;;;;;;;5054332;28;20069;-66
2022/05/07 00:47:42;;;;;;;7.43;4.20;;;;;;;;;;5071366;28;20020;-66
2022/05/07 00:52:53;;;;;;;12.45;5.40;;;;;;;;;;5064526;28;20063;-67
2022/05/07 00:55:20;;;;;;;8.10;5.43;;;;;;;;;;5063910;28;20029;-67
2022/05/07 01:00:52;;;;;;;11.07;5.22;;;;;;;;;;5078817;22;20148;-65
2022/05/07 01:03:18;;;;;;;8.70;5.10;;;;;;;;;;5030756;28;20121;-64
2022/05/07 01:05:45;;;;;;;7.65;5.07;;;;;;;;;;5050204;28;20033;-64
2022/05/07 01:08:12;;;;;;;9.40;5.47;;;;;;;;;;5051518;28;20025;-65
2022/05/07 01:10:39;;;;;;;14.88;5.18;;;;;;;;;;5051089;28;20021;-64
2022/05/07 01:13:05;;;;;;;12.57;5.68;;;;;;;;;;5030972;28;20410;-65
2022/05/07 01:18:07;;;;;;;11.52;5.50;;;;;;;;;;5050415;22;20045;-66
2022/05/07 01:20:33;;;;;;;10.25;4.90;;;;;;;;;;5033334;28;20029;-67
2022/05/07 01:23:00;;;;;;;7.75;4.78;;;;;;;;;;5030262;28;20018;-66
2022/05/07 01:25:26;;;;;;;12.23;5.50;;;;;;;;;;5030290;28;20040;-66
2022/05/07 01:27:52;;;;;;;10.65;4.68;;;;;;;;;;5031352;28;20029;-67
2022/05/07 01:30:18;;;;;;;10.02;5.70;;;;;;;;;;5025813;28;20057;-66
2022/05/07 01:32:44;;;;;;;8.40;5.00;;;;;;;;;;5028791;28;20122;-67
2022/05/07 01:35:11;;;;;;;6.82;4.57;;;;;;;;;;5031452;28;20092;-66
2022/05/07 01:37:37;;;;;;;11.30;5.00;;;;;;;;;;5030957;28;20026;-67
2022/05/07 01:40:03;;;;;;;12.35;4.85;;;;;;;;;;5029697;28;20112;-68
2022/05/07 01:42:29;;;;;;;10.85;5.00;;;;;;;;;;5029844;28;20029;-66
2022/05/07 01:44:55;;;;;;;16.13;5.40;;;;;;;;;;5030573;28;20033;-66
2022/05/07 01:50:06;;;;;;;7.82;4.43;;;;;;;;;;5023416;28;20041;-67
2022/05/07 01:52:32;;;;;;;11.57;5.10;;;;;;;;;;5031457;28;20483;-67
2022/05/07 01:54:58;;;;;;;11.00;5.10;;;;;;;;;;5031105;28;20474;-67
2022/05/07 01:57:26;;;;;;;7.75;4.72;;;;;;;;;;5031224;28;20061;-66
2022/05/07 01:59:52;;;;;;;9.02;4.63;;;;;;;;;;5028985;28;20029;-68
2022/05/07 02:02:18;;;;;;;13.95;4.85;;;;;;;;;;5032103;28;20025;-67
2022/05/07 02:04:44;;;;;;;6.43;4.45;;;;;;;;;;5029534;28;20029;-67
2022/05/07 02:07:10;;;;;;;8.90;4.90;;;;;;;;;;5031219;28;20104;-66
2022/05/07 02:09:37;;;;;;;9.35;4.90;;;;;;;;;;5027340;28;20021;-67
2022/05/07 02:12:03;;;;;;;13.55;4.97;;;;;;;;;;5029579;28;20034;-67
2022/05/07 02:17:35;;;;;;;7.45;4.32;;;;;;;;;;5029237;28;20366;-67
2022/05/07 02:20:02;;;;;;;7.45;4.50;;;;;;;;;;5027664;28;20033;-66
2022/05/07 02:22:28;;;;;;;11.20;4.30;;;;;;;;;;5030889;28;20030;-66
2022/05/07 02:24:54;;;;;;;5.82;4.00;;;;;;;;;;5030985;28;20342;-67
2022/05/07 02:27:20;;;;;;;7.40;4.30;;;;;;;;;;5012870;28;20025;-68
2022/05/07 02:29:46;;;;;;;7.38;4.32;;;;;;;;;;5029770;28;20479;-68
2022/05/07 02:32:13;;;;;;;7.18;4.72;;;;;;;;;;5011787;28;20072;-67
2022/05/07 02:34:40;;;;;;;7.28;4.55;;;;;;;;;;5030249;28;20034;-67
2022/05/07 02:37:06;;;;;;;9.43;4.45;;;;;;;;;;5030521;28;20014;-67
2022/05/07 02:39:33;;;;;;;8.07;4.40;;;;;;;;;;5029794;28;20030;-68
2022/05/07 02:44:44;;;;;;;11.82;4.40;;;;;;;;;;5030472;28;20079;-66
2022/05/07 02:47:10;;;;;;;7.60;4.20;;;;;;;;;;5028997;28;20080;-66
2022/05/07 02:49:36;;;;;;;7.22;4.43;;;;;;;;;;5010501;28;20064;-66
2022/05/07 02:52:02;;;;;;;6.32;4.38;;;;;;;;;;5012370;28;20037;-66
2022/05/07 02:54:28;;;;;;;8.50;4.80;;;;;;;;;;5025183;28;20083;-67
2022/05/07 02:56:55;;;;;;;7.15;4.15;;;;;;;;;;5029968;28;20021;-67
2022/05/07 02:59:21;;;;;;;12.05;4.40;;;;;;;;;;5029833;28;20025;-67
2022/05/07 03:01:47;;;;;;;8.25;4.10;;;;;;;;;;5029047;28;20072;-66
2022/05/07 03:04:13;;;;;;;8.57;4.82;;;;;;;;;;5029739;28;20036;-67
2022/05/07 03:06:39;;;;;;;7.28;4.28;;;;;;;;;;5012388;28;20065;-67
2022/05/07 03:09:05;;;;;;;9.05;4.22;;;;;;;;;;5029008;28;20029;-67
2022/05/07 03:11:33;;;;;;;8.57;4.72;;;;;;;;;;5011142;28;20433;-68
2022/05/07 03:13:59;;;;;;;10.50;4.35;;;;;;;;;;5012581;28;20463;-67
2022/05/07 03:16:26;;;;;;;6.60;4.55;;;;;;;;;;5016922;28;20049;-68
2022/05/07 03:18:52;;;;;;;10.57;5.20;;;;;;;;;;5030004;28;20120;-67
2022/05/07 03:21:18;;;;;;;11.23;5.00;;;;;;;;;;5030318;28;20261;-66
2022/05/07 03:23:46;;;;;;;8.18;5.43;;;;;;;;;;5026817;28;20041;-67
2022/05/07 03:26:12;;;;;;;13.95;5.53;;;;;;;;;;5030221;28;20033;-68
2022/05/07 03:28:38;;;;;;;17.73;6.15;;;;;;;;;;5030451;28;20017;-66
2022/05/07 03:31:04;;;;;;;16.90;5.72;;;;;;;;;;5029006;28;20075;-67
2022/05/07 03:33:31;;;;;;;12.38;5.45;;;;;;;;;;5044665;28;20032;-67
2022/05/07 03:35:57;;;;;;;14.13;5.57;;;;;;;;;;5029888;28;20433;-66
2022/05/07 03:38:23;;;;;;;9.85;5.57;;;;;;;;;;5029890;28;20108;-66
2022/05/07 03:40:49;;;;;;;9.23;5.20;;;;;;;;;;5028716;28;20431;-66
2022/05/07 03:43:15;;;;;;;8.95;5.57;;;;;;;;;;5029947;28;20068;-66
2022/05/07 03:45:42;;;;;;;12.38;5.97;;;;;;;;;;5029696;28;20463;-67
2022/05/07 03:48:09;;;;;;;8.85;5.93;;;;;;;;;;5027587;28;20467;-67
2022/05/07 03:50:35;;;;;;;10.80;6.28;;;;;;;;;;5029305;28;20037;-67
2022/05/07 03:55:45;;;;;;;10.80;6.93;;;;;;;;;;5029625;28;20463;-67
2022/05/07 03:58:15;;;;;;;10.05;5.95;;;;;;;;;;5027862;28;20524;-67
2022/05/07 04:00:42;;;;;;;10.27;6.80;;;;;;;;;;5027120;28;20022;-67
2022/05/07 04:03:08;;;;;;;11.85;7.00;;;;;;;;;;5027935;28;20060;-66
2022/05/07 04:05:34;;;;;;;15.73;6.32;;;;;;;;;;5029321;28;20037;-66
2022/05/07 04:08:00;;;;;;;9.52;6.22;;;;;;;;;;5029190;28;20061;-67
2022/05/07 04:10:26;;;;;;;12.70;6.28;;;;;;;;;;5030822;28;20027;-67
2022/05/07 04:12:52;;;;;;;11.55;7.05;;;;;;;;;;5031940;28;20026;-66
2022/05/07 04:15:19;;;;;;;24.50;6.60;;;;;;;;;;5033466;28;20025;-66
2022/05/07 04:17:45;;;;;;;9.77;6.95;;;;;;;;;;5031772;28;20034;-67
2022/05/07 04:20:12;;;;;;;13.40;6.43;;;;;;;;;;5030931;28;20033;-66
2022/05/07 04:22:38;;;;;;;15.60;6.45;;;;;;;;;;5031977;28;20036;-66
2022/05/07 04:25:07;;;;;;;11.13;6.80;;;;;;;;;;5033281;28;20032;-67
2022/05/07 04:27:34;;;;;;;12.38;7.13;;;;;;;;;;5033487;28;20052;-67
2022/05/07 04:30:00;;;;;;;11.95;7.07;;;;;;;;;;5030971;28;20075;-67
2022/05/07 04:32:26;;;;;;;12.57;7.13;;;;;;;;;;5025054;28;20045;-66
2022/05/07 04:34:58;;;;;;;15.02;6.95;;;;;;;;;;5049581;28;20237;-66
2022/05/07 04:37:25;;;;;;;10.55;6.72;;;;;;;;;;5033348;28;20026;-67
2022/05/07 04:39:51;;;;;;;10.85;5.35;;;;;;;;;;5031068;28;20026;-66
2022/05/07 04:42:17;;;;;;;7.88;5.38;;;;;;;;;;5032568;28;20483;-67
2022/05/07 04:44:43;;;;;;;12.10;5.15;;;;;;;;;;5031889;28;20025;-66
2022/05/07 04:47:09;;;;;;;8.38;5.28;;;;;;;;;;5031860;28;20026;-66
2022/05/07 04:49:38;;;;;;;8.25;5.07;;;;;;;;;;5046836;28;20029;-67
2022/05/07 04:52:08;;;;;;;13.25;5.85;;;;;;;;;;5025278;28;20045;-67
2022/05/07 04:54:34;;;;;;;10.23;5.82;;;;;;;;;;5032840;28;20030;-67
2022/05/07 04:57:00;;;;;;;11.40;5.47;;;;;;;;;;5032657;28;20036;-66
2022/05/07 04:59:27;;;;;;;10.88;5.95;;;;;;;;;;5032149;28;20021;-67
2022/05/07 05:01:53;;;;;;;14.88;6.03;;;;;;;;;;5031095;28;20037;-67
2022/05/07 05:04:19;;;;;;;10.35;5.93;;;;;;;;;;5047736;28;20017;-66
2022/05/07 05:06:45;;;;;;;11.02;6.60;;;;;;;;;;5029639;28;20348;-66
2022/05/07 05:09:15;;;;;;;14.52;5.80;;;;;;;;;;5034090;28;20104;-67
2022/05/07 05:11:41;;;;;;;9.00;5.78;;;;;;;;;;5033137;28;20108;-67
2022/05/07 05:16:52;;;;;;;10.93;5.97;;;;;;;;;;5031302;28;20035;-66
2022/05/07 05:19:19;;;;;;;14.57;6.90;;;;;;;;;;5031282;28;20025;-66
2022/05/07 05:21:45;;;;;;;9.45;5.82;;;;;;;;;;5029610;28;20060;-67
2022/05/07 05:24:12;;;;;;;10.52;5.97;;;;;;;;;;5032316;28;20041;-67
2022/05/07 05:26:38;;;;;;;13.43;5.70;;;;;;;;;;5030610;28;20032;-67
2022/05/07 05:29:04;;;;;;;9.63;6.38;;;;;;;;;;5031785;28;20329;-67
2022/05/07 05:31:30;;;;;;;9.48;5.95;;;;;;;;;;5032069;28;20044;-67
2022/05/07 05:33:57;;;;;;;12.27;5.75;;;;;;;;;;5035874;28;20442;-67
2022/05/07 05:36:24;;;;;;;13.45;5.65;;;;;;;;;;5031959;28;20497;-68
2022/05/07 05:38:50;;;;;;;10.27;6.30;;;;;;;;;;5031013;28;20537;-67
2022/05/07 05:41:16;;;;;;;15.18;6.40;;;;;;;;;;5028951;28;20024;-66
2022/05/07 05:43:42;;;;;;;15.35;9.10;;;;;;;;;;5032165;28;20021;-67
2022/05/07 05:46:08;;;;;;;18.60;8.70;;;;;;;;;;5030354;28;20112;-67
2022/05/07 05:48:34;;;;;;;15.52;8.07;;;;;;;;;;5029622;28;20033;-67
2022/05/07 05:51:00;;;;;;;18.13;9.25;;;;;;;;;;5029086;28;20045;-66
2022/05/07 05:53:26;;;;;;;16.67;9.05;;;;;;;;;;5031610;28;20048;-66
2022/05/07 05:55:52;;;;;;;24.45;8.82;;;;;;;;;;5031526;28;20108;-67
2022/05/07 05:58:18;;;;;;;12.57;8.40;;;;;;;;;;5031781;28;20285;-67
2022/05/07 06:00:44;;;;;;;21.80;9.05;;;;;;;;;;5030628;28;20021;-66
2022/05/07 06:03:10;;;;;;;21.42;8.27;;;;;;;;;;5030651;28;20028;-66
2022/05/07 06:05:37;;;;;;;18.38;9.10;;;;;;;;;;5030388;28;20018;-67
2022/05/07 06:08:03;;;;;;;13.00;8.35;;;;;;;;;;5030769;28;20108;-66
2022/05/07 06:10:29;;;;;;;18.92;9.43;;;;;;;;;;5035044;28;20096;-67
2022/05/07 06:12:55;;;;;;;17.02;10.27;;;;;;;;;;5030932;28;20034;-67
2022/05/07 06:15:21;;;;;;;19.02;9.80;;;;;;;;;;5030218;28;20430;-66
2022/05/07 06:17:47;;;;;;;21.17;10.80;;;;;;;;;;5027329;28;20036;-67
2022/05/07 06:20:14;;;;;;;18.73;10.57;;;;;;;;;;5029092;28;20644;-67
2022/05/07 06:22:40;;;;;;;22.23;11.23;;;;;;;;;;5030901;28;20030;-67
2022/05/07 06:27:51;;;;;;;19.75;10.70;;;;;;;;;;5032681;28;20040;-67
2022/05/07 06:30:17;;;;;;;22.48;10.77;;;;;;;;;;5028640;28;20018;-67
2022/05/07 06:32:43;;;;;;;17.05;10.60;;;;;;;;;;5029256;28;20106;-66
2022/05/07 06:35:10;;;;;;;20.10;10.68;;;;;;;;;;5030943;28;20021;-67
2022/05/07 06:37:37;;;;;;;19.13;9.93;;;;;;;;;;5029040;28;20026;-66
2022/05/07 06:40:06;;;;;;;20.42;9.60;;;;;;;;;;5029309;28;20022;-67
2022/05/07 06:42:36;;;;;;;20.17;11.15;;;;;;;;;;5046106;28;20045;-67
2022/05/07 06:45:03;;;;;;;16.53;10.10;;;;;;;;;;5030452;28;20470;-67
2022/05/07 06:47:29;;;;;;;17.67;10.75;;;;;;;;;;5030414;28;20029;-66
2022/05/07 06:49:55;;;;;;;16.95;10.90;;;;;;;;;;5028640;28;20037;-66
2022/05/07 06:52:21;;;;;;;16.35;10.82;;;;;;;;;;5027292;28;20391;-66
2022/05/07 06:54:47;;;;;;;18.33;11.95;;;;;;;;;;5030492;28;20032;-67
2022/05/07 06:57:13;;;;;;;18.83;10.98;;;;;;;;;;5030286;28;20036;-66
2022/05/07 06:59:39;;;;;;;22.48;12.13;;;;;;;;;;5026813;28;20025;-66
2022/05/07 07:02:05;;;;;;;24.63;12.13;;;;;;;;;;5030289;28;20021;-67
2022/05/07 07:04:31;;;;;;;20.05;12.35;;;;;;;;;;5029688;28;20025;-66
2022/05/07 07:06:57;;;;;;;23.00;12.63;;;;;;;;;;5030099;28;20034;-67
2022/05/07 07:09:23;;;;;;;20.35;12.30;;;;;;;;;;5029065;28;20022;-67
2022/05/07 07:11:49;;;;;;;26.65;12.25;;;;;;;;;;5029011;28;20432;-67
2022/05/07 07:14:15;;;;;;;22.08;12.75;;;;;;;;;;5028908;28;20025;-67
2022/05/07 07:16:41;;;;;;;29.50;13.30;;;;;;;;;;5029934;28;20606;-66
2022/05/07 07:19:07;;;;;;;23.92;12.85;;;;;;;;;;5028260;28;20113;-67
2022/05/07 07:21:33;;;;;;;19.00;11.88;;;;;;;;;;5029478;28;20108;-67
2022/05/07 07:23:59;;;;;;;21.35;12.93;;;;;;;;;;5028797;28;20057;-66
2022/05/07 07:26:25;;;;;;;19.63;13.85;;;;;;;;;;5026572;28;20067;-67
2022/05/07 07:28:53;;;;;;;23.73;13.15;;;;;;;;;;5028877;28;20022;-66
2022/05/07 07:31:19;;;;;;;24.80;11.75;;;;;;;;;;5029498;28;20036;-66
2022/05/07 07:33:45;;;;;;;19.75;11.43;;;;;;;;;;5027981;28;20492;-66
2022/05/07 07:36:12;;;;;;;20.52;12.90;;;;;;;;;;5027854;28;20029;-67
2022/05/07 07:38:38;;;;;;;21.58;11.70;;;;;;;;;;5029099;28;20080;-67
2022/05/07 07:41:04;;;;;;;21.85;11.10;;;;;;;;;;5027554;28;20041;-66
2022/05/07 07:43:30;;;;;;;20.80;11.18;;;;;;;;;;5028780;28;20025;-68
2022/05/07 07:48:42;;;;;;;17.85;11.27;;;;;;;;;;5031186;28;20406;-66
2022/05/07 07:51:08;;;;;;;20.52;11.55;;;;;;;;;;5030796;28;20060;-67
2022/05/07 07:53:34;;;;;;;15.55;10.82;;;;;;;;;;5031171;28;20022;-66
2022/05/07 07:56:01;;;;;;;23.17;11.25;;;;;;;;;;5031079;28;20493;-67
2022/05/07 07:58:27;;;;;;;19.50;11.18;;;;;;;;;;5031197;28;20029;-66
2022/05/07 08:00:53;;;;;;;20.25;11.32;;;;;;;;;;5023562;28;20030;-66
2022/05/07 08:03:20;;;;;;;19.25;11.25;;;;;;;;;;5031103;28;20018;-67
2022/05/07 08:05:48;;;;;;;22.58;11.15;;;;;;;;;;5031680;28;20125;-67
2022/05/07 08:13:45;;;;;;;20.33;10.90;;;;;;;;;;5031727;28;20040;-66
2022/05/07 08:16:11;;;;;;;23.23;11.15;;;;;;;;;;5032228;28;20021;-66
2022/05/07 08:18:38;;;;;;;22.13;11.40;;;;;;;;;;5031235;28;20017;-67
2022/05/07 08:21:04;;;;;;;24.13;11.27;;;;;;;;;;4995165;28;1096138;-66
2022/05/07 08:23:30;;;;;;;20.77;11.45;;;;;;;;;;5033465;28;20033;-67
2022/05/07 08:25:56;;;;;;;21.55;11.20;;;;;;;;;;5033160;28;20079;-66
2022/05/07 08:28:24;;;;;;;22.40;10.40;;;;;;;;;;5033277;28;20057;-66
2022/05/07 08:30:50;;;;;;;18.77;10.38;;;;;;;;;;5031597;28;20116;-67
2022/05/07 08:33:20;;;;;;;33.03;13.75;;;;;;;;;;5031836;28;20128;-67
2022/05/07 08:35:46;;;;;;;17.67;10.00;;;;;;;;;;5031124;28;20037;-67
2022/05/07 08:38:13;;;;;;;22.95;12.00;;;;;;;;;;5031584;28;20056;-68
2022/05/07 08:40:42;;;;;;;25.77;11.02;;;;;;;;;;5030387;28;20037;-67
2022/05/07 08:43:08;;;;;;;19.90;10.30;;;;;;;;;;5032975;28;20475;-66
2022/05/07 08:45:35;;;;;;;24.75;11.95;;;;;;;;;;5032691;28;20379;-66
2022/05/07 08:48:01;;;;;;;22.67;11.10;;;;;;;;;;5032441;28;20021;-69
2022/05/07 08:50:28;;;;;;;20.75;11.10;;;;;;;;;;5029920;28;20658;-66
2022/05/07 08:52:54;;;;;;;21.55;11.20;;;;;;;;;;5032218;28;20041;-67
2022/05/07 08:55:20;;;;;;;20.05;11.38;;;;;;;;;;5032060;28;20092;-67
2022/05/07 08:57:47;;;;;;;24.25;12.48;;;;;;;;;;5032503;28;20025;-66
2022/05/07 09:00:14;;;;;;;21.02;12.88;;;;;;;;;;5032645;28;20022;-67
2022/05/07 09:02:48;;;;;;;26.52;11.50;;;;;;;;;;5032135;28;20506;-67
2022/05/07 09:05:15;;;;;;;23.67;12.13;;;;;;;;;;5031446;28;20106;-66
2022/05/07 09:07:51;;;;;;;19.98;11.98;;;;;;;;;;5031381;28;20021;-67
2022/05/07 09:10:19;;;;;;;21.77;10.63;;;;;;;;;;5028005;28;20022;-67
2022/05/07 09:12:45;;;;;;;20.48;11.10;;;;;;;;;;5031961;28;20037;-67
2022/05/07 09:15:11;;;;;;;18.55;11.57;;;;;;;;;;5031899;28;20096;-66
2022/05/07 09:17:37;;;;;;;18.73;9.55;;;;;;;;;;5031941;28;20029;-67
2022/05/07 09:20:12;;;;;;;17.10;10.52;;;;;;;;;;5028884;28;20021;-67
2022/05/07 09:22:49;;;;;;;15.73;9.45;;;;;;;;;;5030948;28;20025;-67
2022/05/07 09:25:20;;;;;;;16.00;8.57;;;;;;;;;;5030831;28;20437;-67
2022/05/07 09:27:47;;;;;;;18.08;9.65;;;;;;;;;;5032135;28;20029;-66
2022/05/07 09:30:13;;;;;;;17.55;9.90;;;;;;;;;;5031497;28;20036;-66
2022/05/07 09:32:39;;;;;;;16.42;9.77;;;;;;;;;;5030073;28;20038;-68
2022/05/07 09:37:58;;;;;;;16.77;9.35;;;;;;;;;;5032121;28;20053;-66
2022/05/07 09:40:24;;;;;;;13.80;8.07;;;;;;;;;;5031853;28;20262;-67
2022/05/07 09:42:50;;;;;;;14.32;7.57;;;;;;;;;;5031331;28;20036;-67
2022/05/07 09:45:17;;;;;;;14.10;8.70;;;;;;;;;;5035920;28;20029;-66
2022/05/07 09:47:44;;;;;;;17.50;9.38;;;;;;;;;;5030220;28;20018;-67
2022/05/07 09:50:20;;;;;;;16.70;9.90;;;;;;;;;;5030380;28;20108;-67
2022/05/07 09:58:20;;;;;;;12.57;7.93;;;;;;;;;;5025577;28;20452;-67
2022/05/07 10:00:55;;;;;;;18.02;10.10;;;;;;;;;;5030657;28;20030;-66
2022/05/07 10:03:26;;;;;;;15.35;8.32;;;;;;;;;;5030903;28;20076;-67
2022/05/07 10:05:52;;;;;;;13.60;7.85;;;;;;;;;;5030121;28;20032;-67
2022/05/07 10:08:36;;;;;;;19.55;8.82;;;;;;;;;;5030567;28;20018;-66
2022/05/07 10:11:04;;;;;;;14.68;8.48;;;;;;;;;;5035033;28;20021;-66
2022/05/07 10:13:30;;;;;;;14.57;8.55;;;;;;;;;;5030902;28;20124;-66
2022/05/07 10:16:00;;;;;;;17.23;9.18;;;;;;;;;;5029128;28;20021;-67
2022/05/07 10:18:46;;;;;;;11.10;7.53;;;;;;;;;;5031399;28;20121;-67
2022/05/07 10:21:17;;;;;;;11.15;7.38;;;;;;;;;;5028624;28;20056;-67
2022/05/07 10:23:43;;;;;;;;;;;;;;;;;;5031160;28;20060;-67
2022/05/07 10:26:09;;;;;;;15.00;8.98;;;;;;;;;;5029243;28;19953;-67
2022/05/07 10:28:39;;;;;;;16.05;8.88;;;;;;;;;;5030726;28;20032;-67
2022/05/07 10:31:15;;;;;;;13.50;7.35;;;;;;;;;;5038106;28;20426;-67
2022/05/07 10:33:41;;;;;;;15.82;7.45;;;;;;;;;;5030937;28;20040;-67
2022/05/07 10:36:11;;;;;;;16.30;7.68;;;;;;;;;;5030560;28;20223;-66
2022/05/07 10:38:42;;;;;;;11.70;7.10;;;;;;;;;;5030235;28;20486;-67
2022/05/07 10:41:17;;;;;;;17.67;7.18;;;;;;;;;;5023159;28;20521;-66
2022/05/07 10:43:46;;;;;;;16.42;6.97;;;;;;;;;;5030979;28;20026;-66
2022/05/07 10:46:14;;;;;;;12.32;6.60;;;;;;;;;;5030604;28;20053;-67
2022/05/07 10:48:46;;;;;;;17.88;6.97;;;;;;;;;;5030485;28;20506;-67
2022/05/07 10:51:18;;;;;;;11.13;7.22;;;;;;;;;;5028079;28;20040;-67
2022/05/07 10:53:44;;;;;;;11.20;6.70;;;;;;;;;;5029032;28;20096;-67
2022/05/07 10:56:14;;;;;;;19.05;7.72;;;;;;;;;;5030280;28;20046;-68
2022/05/07 10:58:45;;;;;;;13.10;7.25;;;;;;;;;;5029084;28;20062;-67
2022/05/07 11:01:12;;;;;;;15.90;6.72;;;;;;;;;;5030411;28;20032;-67
2022/05/07 11:03:38;;;;;;;14.73;6.88;;;;;;;;;;5029641;28;20502;-67
2022/05/07 11:06:04;;;;;;;9.32;6.03;;;;;;;;;;5029173;28;20545;-67
2022/05/07 11:08:30;;;;;;;13.05;6.55;;;;;;;;;;5028842;28;20026;-67
2022/05/07 11:11:24;;;;;;;9.35;5.95;;;;;;;;;;5033897;28;20451;-67
2022/05/07 11:13:54;;;;;;;11.82;6.47;;;;;;;;;;5028382;28;20048;-66
2022/05/07 11:16:21;;;;;;;10.93;6.38;;;;;;;;;;5030170;28;20029;-67
2022/05/07 11:18:50;;;;;;;10.10;6.38;;;;;;;;;;5029352;28;20390;-66
2022/05/07 11:21:17;;;;;;;15.60;7.00;;;;;;;;;;5024124;28;20021;-67
2022/05/07 11:23:44;;;;;;;12.00;6.10;;;;;;;;;;5030445;28;20022;-67
2022/05/07 11:26:15;;;;;;;33.80;8.05;;;;;;;;;;5030028;28;20022;-67
2022/05/07 11:28:43;;;;;;;13.20;6.82;;;;;;;;;;5037774;28;20017;-68
2022/05/07 11:31:10;;;;;;;7.22;5.55;;;;;;;;;;5029194;28;20018;-67
2022/05/07 11:33:36;;;;;;;9.57;5.93;;;;;;;;;;5028355;28;20112;-67
2022/05/07 11:36:06;;;;;;;10.35;5.60;;;;;;;;;;5028663;28;20026;-67
2022/05/07 11:38:33;;;;;;;10.43;5.20;;;;;;;;;;5030007;28;20155;-67
2022/05/07 11:41:15;;;;;;;12.23;6.03;;;;;;;;;;5029240;28;20029;-67
2022/05/07 11:46:26;;;;;;;12.70;5.90;;;;;;;;;;5030300;28;20088;-67
2022/05/07 11:48:52;;;;;;;10.00;5.47;;;;;;;;;;5028114;28;20119;-67
2022/05/07 11:51:25;;;;;;;8.82;5.80;;;;;;;;;;5028582;28;20091;-67
2022/05/07 11:53:52;;;;;;;11.55;5.68;;;;;;;;;;5028435;28;20364;-67
2022/05/07 11:56:18;;;;;;;13.13;6.40;;;;;;;;;;5028498;28;20462;-67
2022/05/07 11:58:49;;;;;;;7.10;5.15;;;;;;;;;;5028350;28;20029;-66
2022/05/07 12:01:22;;;;;;;10.60;6.15;;;;;;;;;;5029462;28;20049;-67
2022/05/07 12:03:48;;;;;;;9.18;5.53;;;;;;;;;;5026989;28;20144;-67
2022/05/07 12:06:29;;;;;;;12.32;5.75;;;;;;;;;;5028300;28;20513;-67
2022/05/07 12:08:55;;;;;;;12.32;5.97;;;;;;;;;;5029069;28;20466;-67
2022/05/07 12:11:21;;;;;;;10.18;5.60;;;;;;;;;;5029341;28;20164;-66
2022/05/07 12:13:48;;;;;;;8.38;5.95;;;;;;;;;;5029173;28;20029;-66
2022/05/07 12:18:58;;;;;;;11.73;5.32;;;;;;;;;;5029175;28;20044;-67
2022/05/07 12:29:50;;;;;;;8.35;5.82;;;;;;;;;;5028929;28;20044;-67
2022/05/07 12:32:20;;;;;;;9.60;6.35;;;;;;;;;;5032584;28;20053;-67
2022/05/07 12:34:47;;;;;;;11.23;6.43;;;;;;;;;;5033072;28;20025;-67
2022/05/07 12:37:13;;;;;;;10.15;5.82;;;;;;;;;;5024686;28;20471;-67
2022/05/07 12:39:39;;;;;;;10.70;5.28;;;;;;;;;;5037153;28;20029;-67
2022/05/07 12:42:09;;;;;;;9.82;5.30;;;;;;;;;;5032406;28;20044;-67
2022/05/07 12:44:35;;;;;;;9.13;5.57;;;;;;;;;;5032940;28;20021;-67
2022/05/07 12:47:01;;;;;;;10.02;6.05;;;;;;;;;;5031899;28;20057;-67
2022/05/07 12:49:28;;;;;;;10.73;5.60;;;;;;;;;;5032163;28;20108;-67
2022/05/07 12:51:54;;;;;;;9.63;6.55;;;;;;;;;;5031327;28;20200;-67
2022/05/07 12:54:21;;;;;;;8.93;5.38;;;;;;;;;;5032936;28;20033;-67
2022/05/07 12:56:47;;;;;;;12.20;4.80;;;;;;;;;;5032401;28;20426;-67
2022/05/07 12:59:14;;;;;;;10.82;5.43;;;;;;;;;;5027568;28;20072;-67
2022/05/07 13:01:40;;;;;;;11.88;5.18;;;;;;;;;;5027475;28;20030;-67
2022/05/07 13:04:06;;;;;;;12.13;5.43;;;;;;;;;;5032200;28;20521;-66
2022/05/07 13:06:32;;;;;;;8.32;5.13;;;;;;;;;;5031272;28;20025;-67
2022/05/07 13:09:00;;;;;;;11.55;5.13;;;;;;;;;;5032723;28;20493;-68
2022/05/07 13:11:26;;;;;;;8.95;5.85;;;;;;;;;;5034949;28;20033;-67
2022/05/07 13:13:52;;;;;;;7.00;5.45;;;;;;;;;;5040240;28;20442;-67
2022/05/07 13:16:18;;;;;;;8.90;5.00;;;;;;;;;;5031924;28;20017;-67
2022/05/07 13:18:45;;;;;;;7.47;5.38;;;;;;;;;;5031768;28;20038;-67
2022/05/07 13:21:11;;;;;;;8.70;5.30;;;;;;;;;;5008916;28;20030;-67
2022/05/07 13:23:38;;;;;;;12.07;4.88;;;;;;;;;;5009059;28;20057;-67
2022/05/07 13:26:04;;;;;;;7.72;5.18;;;;;;;;;;5012277;28;20044;-67
2022/05/07 13:28:30;;;;;;;9.07;4.63;;;;;;;;;;5012320;28;20030;-67
2022/05/07 13:30:58;;;;;;;8.10;4.72;;;;;;;;;;5011842;28;20032;-67
2022/05/07 13:33:24;;;;;;;4.20;3.20;;;;;;;;;;5004440;28;20383;-67
2022/05/07 13:35:51;;;;;;;10.13;4.70;;;;;;;;;;5001607;28;20025;-67
2022/05/07 13:38:17;;;;;;;8.80;3.95;;;;;;;;;;5005089;28;20541;-67
2022/05/07 13:40:44;;;;;;;5.32;3.80;;;;;;;;;;4995804;28;20034;-67
2022/05/07 13:43:11;;;;;;;6.13;3.67;;;;;;;;;;5002796;28;20105;-66
2022/05/07 13:45:37;;;;;;;7.50;3.97;;;;;;;;;;4996130;28;20030;-67
2022/05/07 13:48:04;;;;;;;6.65;3.38;;;;;;;;;;5009761;28;20254;-67
2022/05/07 13:50:30;;;;;;;5.55;4.07;;;;;;;;;;4990592;28;20435;-67
2022/05/07 13:52:56;;;;;;;8.93;4.07;;;;;;;;;;5005918;28;20751;-66
2022/05/07 13:55:22;;;;;;;9.40;4.18;;;;;;;;;;5011758;28;20483;-67
2022/05/07 13:57:48;;;;;;;8.95;4.40;;;;;;;;;;5006045;28;20058;-67
2022/05/07 14:00:16;;;;;;;5.50;3.75;;;;;;;;;;5014001;28;20087;-67
2022/05/07 14:05:49;;;;;;;6.85;4.30;;;;;;;;;;5014075;28;20065;-67
2022/05/07 14:08:15;;;;;;;8.13;3.35;;;;;;;;;;5004401;28;20506;-67
2022/05/07 14:10:42;;;;;;;7.80;4.18;;;;;;;;;;5015485;28;20026;-67
2022/05/07 14:13:09;;;;;;;9.63;3.55;;;;;;;;;;5011769;28;20034;-67
2022/05/07 14:15:35;;;;;;;5.63;3.83;;;;;;;;;;5011583;28;20034;-67
2022/05/07 14:18:01;;;;;;;4.40;3.40;;;;;;;;;;5010910;28;20757;-67
2022/05/07 14:20:27;;;;;;;6.93;3.53;;;;;;;;;;5024070;28;20390;-67
2022/05/07 14:22:54;;;;;;;6.47;4.10;;;;;;;;;;5027271;28;20025;-67
2022/05/07 14:25:20;;;;;;;7.57;4.00;;;;;;;;;;5030894;28;20221;-67
2022/05/07 14:27:46;;;;;;;11.15;4.03;;;;;;;;;;5030863;28;20026;-67
2022/05/07 14:30:12;;;;;;;10.45;4.10;;;;;;;;;;5030460;28;20022;-67
2022/05/07 14:32:38;;;;;;;5.80;3.63;;;;;;;;;;5030475;28;20041;-67
2022/05/07 14:35:06;;;;;;;7.45;3.72;;;;;;;;;;5031236;28;20029;-67
2022/05/07 14:37:32;;;;;;;5.97;3.70;;;;;;;;;;5029842;28;20032;-67
2022/05/07 14:39:58;;;;;;;11.07;4.10;;;;;;;;;;5030041;28;20025;-67
2022/05/07 14:42:24;;;;;;;7.55;3.95;;;;;;;;;;5009621;28;20391;-67
2022/05/07 14:44:50;;;;;;;6.20;3.70;;;;;;;;;;5029993;28;20167;-67
2022/05/07 14:47:16;;;;;;;15.15;7.82;;;;;;;;;;5037084;28;20029;-67
2022/05/07 14:49:42;;;;;;;13.98;7.25;;;;;;;;;;5011848;28;20029;-67
2022/05/07 14:52:08;;;;;;;11.20;7.55;;;;;;;;;;5026104;28;20033;-67
2022/05/07 14:54:34;;;;;;;12.65;6.95;;;;;;;;;;5026190;28;20025;-67
2022/05/07 14:57:00;;;;;;;15.80;7.78;;;;;;;;;;5011259;28;20169;-67
2022/05/07 14:59:26;;;;;;;14.13;6.82;;;;;;;;;;5028930;28;20036;-68
2022/05/07 15:01:53;;;;;;;14.98;7.35;;;;;;;;;;5030185;28;20052;-67
2022/05/07 15:04:19;;;;;;;14.32;7.03;;;;;;;;;;5029898;28;20032;-67
2022/05/07 15:06:45;;;;;;;16.05;7.93;;;;;;;;;;5009948;28;20042;-66
2022/05/07 15:11:55;;;;;;;12.23;6.25;;;;;;;;;;5030203;28;20095;-67
2022/05/07 15:14:22;;;;;;;14.90;6.82;;;;;;;;;;5029968;28;20053;-67
2022/05/07 15:16:48;;;;;;;11.38;7.40;;;;;;;;;;5029995;28;20097;-67
2022/05/07 15:19:14;;;;;;;18.67;7.03;;;;;;;;;;5028944;28;20044;-67
2022/05/07 15:21:40;;;;;;;8.38;5.28;;;;;;;;;;5029800;28;20029;-67
2022/05/07 15:24:07;;;;;;;16.17;7.18;;;;;;;;;;5007617;28;20033;-67
2022/05/07 15:26:33;;;;;;;12.38;6.35;;;;;;;;;;5025798;28;20033;-67
2022/05/07 15:28:59;;;;;;;11.15;6.13;;;;;;;;;;5028759;28;20026;-67
2022/05/07 15:31:25;;;;;;;9.05;5.95;;;;;;;;;;5023059;28;20037;-66